Michipicoten — CFG8060 — position and weather

sailwx.info

Track history (hours):
 
Tides and Currents Weather Stations Pressure Air Temp Water Temp Dewpoint Dewpoint Depression Visibility Wind Speed Wind Dir Waves Ship Positions

Michipicoten

Last reported at 2016-Jun-30 08:32 UTC. Time now 2016-Jun-30 19:40 UTC.
Position N 45°07' W 086°20'.

Length 213 m; draft 7.3 m.

Type: Cargo ship. MMSI: 316002501.

Date/timePositionNaut miles runAvg speedWind from/ knotsBaromVisibWave heightAir tempDewpointWater temp
2016-Jun-30 08:32N 45°07' W 086°20'1312.8
2016-Jun-30 07:33N 45°19' W 086°15'1312.9
2016-Jun-30 06:33N 45°31' W 086°10'1212.1
2016-Jun-30 05:33N 45°42' W 086°03'1312.7
2016-Jun-30 04:33N 45°48' W 085°47'1212.3
2016-Jun-30 03:33N 45°53' W 085°31'1312.8
2016-Jun-30 02:33N 45°52' W 085°12'1312.8
2016-Jun-30 01:33N 45°50' W 084°54'1212.1
2016-Jun-30 00:33N 45°50' W 084°37'1312.6
2016-Jun-29 23:33N 45°52' W 084°19'34 3.1
2016-Jun-29 12:33N 46°17' W 083°46'0 0.0
2016-Jun-29 09:21N 46°17' W 083°46'1 1.0
2016-Jun-29 08:28N 46°17' W 083°46'30 3.6
2016-Jun-29 00:22N 45°52' W 084°10'1113.6
2016-Jun-28 23:33N 45°51' W 084°26'1313.3
2016-Jun-28 22:33N 45°49' W 084°44'1313.4
2016-Jun-28 21:33N 45°50' W 085°03'1111.2
2016-Jun-28 20:33N 45°41' W 085°14'1313.1
2016-Jun-28 19:33N 45°31' W 085°25'1313.4
2016-Jun-28 18:33N 45°20' W 085°36'1313.5
2016-Jun-28 17:33N 45°09' W 085°48'2 0.1
2016-Jun-27 10:33N 45°08' W 085°50'1313.2
2016-Jun-27 09:33N 45°18' W 085°39'1313.3
2016-Jun-27 08:33N 45°29' W 085°29'1313.4
2016-Jun-27 07:34N 45°40' W 085°17'1010.4
2016-Jun-27 06:33N 45°48' W 085°08'1211.5
2016-Jun-27 05:33N 45°49' W 084°52'1212.1
2016-Jun-27 04:33N 45°51' W 084°35'1312.9
2016-Jun-27 03:33N 45°51' W 084°16'  
2016-Jun-21 12:34N 46°31' W 084°23'9 4.4
2016-Jun-21 10:32N 46°29' W 084°35'1313.3
2016-Jun-21 09:33N 46°39' W 084°47'  
Track history (hours):
 
Tides and Currents Weather Stations Pressure Air Temp Water Temp Dewpoint Dewpoint Depression Visibility Wind Speed Wind Dir Waves Ship Positions

Michipicoten

Last reported at 2016-Jun-30 08:32 UTC. Time now 2016-Jun-30 19:40 UTC.
Position N 45°07' W 086°20'.

Length 213 m; draft 7.3 m.

Type: Cargo ship. MMSI: 316002501.

Date/timePositionNaut miles runAvg speedWind from/ knotsBaromVisibWave heightAir tempDewpointWater temp
2016-Jun-30 08:32N 45°07' W 086°20'1312.8
2016-Jun-30 07:33N 45°19' W 086°15'1312.9
2016-Jun-30 06:33N 45°31' W 086°10'1212.1
2016-Jun-30 05:33N 45°42' W 086°03'1312.7
2016-Jun-30 04:33N 45°48' W 085°47'1212.3
2016-Jun-30 03:33N 45°53' W 085°31'1312.8
2016-Jun-30 02:33N 45°52' W 085°12'1312.8
2016-Jun-30 01:33N 45°50' W 084°54'1212.1
2016-Jun-30 00:33N 45°50' W 084°37'1312.6
2016-Jun-29 23:33N 45°52' W 084°19'34 3.1
2016-Jun-29 12:33N 46°17' W 083°46'0 0.0
2016-Jun-29 09:21N 46°17' W 083°46'1 1.0
2016-Jun-29 08:28N 46°17' W 083°46'30 3.6
2016-Jun-29 00:22N 45°52' W 084°10'1113.6
2016-Jun-28 23:33N 45°51' W 084°26'1313.3
2016-Jun-28 22:33N 45°49' W 084°44'1313.4
2016-Jun-28 21:33N 45°50' W 085°03'1111.2
2016-Jun-28 20:33N 45°41' W 085°14'1313.1
2016-Jun-28 19:33N 45°31' W 085°25'1313.4
2016-Jun-28 18:33N 45°20' W 085°36'1313.5
2016-Jun-28 17:33N 45°09' W 085°48'2 0.1
2016-Jun-27 10:33N 45°08' W 085°50'1313.2
2016-Jun-27 09:33N 45°18' W 085°39'1313.3
2016-Jun-27 08:33N 45°29' W 085°29'1313.4
2016-Jun-27 07:34N 45°40' W 085°17'1010.4
2016-Jun-27 06:33N 45°48' W 085°08'1211.5
2016-Jun-27 05:33N 45°49' W 084°52'1212.1
2016-Jun-27 04:33N 45°51' W 084°35'1312.9
2016-Jun-27 03:33N 45°51' W 084°16'  
2016-Jun-21 12:34N 46°31' W 084°23'9 4.4
2016-Jun-21 10:32N 46°29' W 084°35'1313.3
2016-Jun-21 09:33N 46°39' W 084°47'  

Dump ship's entire track history